Time;durP1;ratioP1;P1;durP2;ratioP2;P2;SDS_P1;SDS_P2;PMS_P1;PMS_P2;Temp;Humidity;BMP_temperature;BMP_pressure;BME280_temperature;BME280_humidity;BME280_pressure;Samples;Min_cycle;Max_cycle;Signal;HPM_P1;HPM_P2
2023/08/24 00:00:40;;;;;;;12.50;4.63;;;;;;;17.42;93.13;101913.91;6093211;19;20523;-71
2023/08/24 00:02:48;;;;;;;9.15;4.60;;;;;;;17.39;92.63;101914.06;6095645;19;20014;-71
2023/08/24 00:04:56;;;;;;;10.38;4.63;;;;;;;17.40;93.15;101909.59;6097765;19;20003;-71
2023/08/24 00:07:01;;;;;;;10.10;4.72;;;;;;;17.48;93.30;101889.69;6097844;19;20002;-69
2023/08/24 00:09:08;;;;;;;8.55;4.72;;;;;;;17.56;93.13;101883.94;6096653;19;20042;-69
2023/08/24 00:11:14;;;;;;;8.63;4.70;;;;;;;17.59;92.81;101869.63;6087471;19;20019;-69
2023/08/24 00:13:22;;;;;;;13.25;4.68;;;;;;;17.65;92.10;101877.28;6093976;19;20017;-71
2023/08/24 00:15:30;;;;;;;8.13;3.95;;;;;;;17.66;92.24;101884.31;6094056;19;20470;-71
2023/08/24 00:17:35;;;;;;;9.43;4.65;;;;;;;17.60;92.19;101888.16;6094351;19;20557;-71
2023/08/24 00:19:40;;;;;;;8.70;4.78;;;;;;;17.55;92.20;101888.41;6098648;19;20075;-70
2023/08/24 00:21:48;;;;;;;8.77;4.38;;;;;;;17.59;92.10;101890.88;6093692;19;20070;-71
2023/08/24 00:23:56;;;;;;;10.88;4.93;;;;;;;17.65;92.14;101894.09;6093951;19;20255;-75
2023/08/24 00:26:01;;;;;;;10.93;4.85;;;;;;;17.64;91.93;101888.84;6087120;19;20376;-74
2023/08/24 00:28:07;;;;;;;10.77;4.93;;;;;;;17.64;91.99;101888.84;6080715;19;20011;-70
2023/08/24 00:30:15;;;;;;;10.77;4.60;;;;;;;17.65;91.94;101890.59;6090081;19;20077;-71
2023/08/24 00:32:20;;;;;;;9.45;4.70;;;;;;;17.68;91.95;101891.25;6083400;19;20027;-70
2023/08/24 00:34:26;;;;;;;9.85;4.35;;;;;;;17.63;91.86;101897.78;6095169;19;20010;-70
2023/08/24 00:36:31;;;;;;;8.77;4.82;;;;;;;17.60;91.89;101882.84;6095812;19;20010;-72
2023/08/24 00:38:36;;;;;;;10.07;4.97;;;;;;;17.59;92.11;101882.91;6096231;19;20019;-71
2023/08/24 00:40:44;;;;;;;8.73;4.10;;;;;;;17.60;92.33;101888.16;6098975;19;20383;-70
2023/08/24 00:42:49;;;;;;;8.73;4.43;;;;;;;17.54;92.30;101886.69;6098636;19;20043;-70
2023/08/24 00:44:55;;;;;;;7.53;4.20;;;;;;;17.49;93.11;101883.41;6087131;19;20003;-71
2023/08/24 00:47:03;;;;;;;10.45;4.55;;;;;;;17.46;93.42;101882.72;6098075;19;20007;-72
2023/08/24 00:49:08;;;;;;;8.68;4.47;;;;;;;17.48;92.88;101887.03;6094831;19;20038;-72
2023/08/24 00:51:14;;;;;;;9.10;4.60;;;;;;;17.46;93.41;101882.72;6101004;19;20616;-70
2023/08/24 00:53:19;;;;;;;7.97;4.00;;;;;;;17.46;93.62;101880.94;6095334;19;20010;-70
2023/08/24 00:55:24;;;;;;;10.60;4.88;;;;;;;17.49;93.45;101887.88;6096295;19;20016;-72
2023/08/24 00:57:27;;;;;;;9.77;4.30;;;;;;;17.46;93.52;101888.91;6094717;19;20086;-70
2023/08/24 00:59:33;;;;;;;10.57;4.30;;;;;;;17.46;93.61;101886.25;6099091;19;20074;-70
2023/08/24 01:01:38;;;;;;;6.45;4.00;;;;;;;17.47;94.14;101898.56;6100089;19;20348;-70
2023/08/24 01:03:46;;;;;;;10.45;5.32;;;;;;;17.44;94.35;101904.06;6098215;19;20006;-70
2023/08/24 01:05:51;;;;;;;8.60;4.35;;;;;;;17.43;94.21;101896.16;6084897;19;20506;-70
2023/08/24 01:07:58;;;;;;;13.23;4.93;;;;;;;17.52;93.74;101893.88;6103234;19;20033;-71
2023/08/24 01:10:06;;;;;;;10.43;4.32;;;;;;;17.52;93.73;101885.06;6094556;19;19999;-70
2023/08/24 01:12:28;;;;;;;8.02;4.47;;;;;;;17.56;93.49;101873.31;6094274;19;20007;-70
2023/08/24 01:14:47;;;;;;;9.50;4.20;;;;;;;17.59;93.87;101869.63;6097201;19;20474;-70
2023/08/24 01:16:55;;;;;;;8.80;4.13;;;;;;;17.65;93.47;101862.19;6097955;19;20003;-70
2023/08/24 01:19:07;;;;;;;8.77;4.18;;;;;;;17.71;93.10;101864.50;6096281;19;20003;-70
2023/08/24 01:21:13;;;;;;;10.55;4.85;;;;;;;17.70;92.43;101869.94;6092742;19;20009;-70
2023/08/24 01:23:34;;;;;;;6.70;3.65;;;;;;;17.71;92.77;101866.31;6098363;19;20007;-70
2023/08/24 01:25:48;;;;;;;11.70;4.55;;;;;;;17.75;92.82;101874.06;6096477;19;20219;-70
2023/08/24 01:28:00;;;;;;;10.15;4.43;;;;;;;17.72;92.95;101873.34;6094919;19;20023;-70
2023/08/24 01:30:06;;;;;;;9.88;4.68;;;;;;;17.77;93.35;101873.94;6092407;19;20003;-71
2023/08/24 01:32:13;;;;;;;9.73;5.18;;;;;;;17.78;93.47;101857.06;6093984;19;20026;-73
2023/08/24 01:34:18;;;;;;;9.73;4.78;;;;;;;17.78;94.25;101855.25;6100127;19;20038;-69
2023/08/24 01:36:25;;;;;;;10.48;5.00;;;;;;;17.75;94.52;101857.25;6100281;19;20019;-70
2023/08/24 01:38:29;;;;;;;9.95;4.85;;;;;;;17.80;94.75;101868.53;6093184;19;20010;-70
2023/08/24 01:40:46;;;;;;;12.15;5.00;;;;;;;17.82;94.71;101876.41;6100110;19;20003;-71
2023/08/24 01:42:59;;;;;;;9.80;4.85;;;;;;;17.75;95.05;101867.88;6099322;19;20030;-69
2023/08/24 01:45:08;;;;;;;10.00;5.30;;;;;;;17.69;95.86;101868.19;6098636;19;20343;-71
2023/08/24 01:47:13;;;;;;;12.55;4.80;;;;;;;17.69;96.57;101857.56;6097899;19;20038;-70
2023/08/24 01:49:21;;;;;;;11.10;5.68;;;;;;;17.62;96.45;101857.03;6099260;19;20387;-70
2023/08/24 01:51:30;;;;;;;9.52;4.82;;;;;;;17.57;96.59;101847.59;6100206;19;20102;-72
2023/08/24 01:53:36;;;;;;;10.38;5.43;;;;;;;17.59;95.93;101846.59;6089570;19;20038;-71
2023/08/24 01:55:41;;;;;;;11.00;5.35;;;;;;;17.51;97.24;101832.84;6096717;19;20009;-70
2023/08/24 01:57:46;;;;;;;11.68;5.50;;;;;;;17.52;97.22;101845.19;6091689;19;20006;-70
2023/08/24 01:59:54;;;;;;;10.93;5.07;;;;;;;17.47;97.44;101828.63;6097234;19;20006;-70
2023/08/24 02:02:00;;;;;;;11.85;5.13;;;;;;;17.43;97.72;101827.06;6089840;19;20011;-70
2023/08/24 02:04:05;;;;;;;9.40;5.38;;;;;;;17.39;97.48;101822.88;6098764;19;20138;-70
2023/08/24 02:06:10;;;;;;;12.45;5.60;;;;;;;17.43;98.38;101814.66;6101376;19;20086;-70
2023/08/24 02:08:16;;;;;;;11.05;6.00;;;;;;;17.45;97.92;101807.44;6103251;19;20010;-69
2023/08/24 02:10:21;;;;;;;11.48;5.90;;;;;;;17.33;98.62;101797.50;6099367;19;20487;-70
2023/08/24 02:12:29;;;;;;;9.90;5.57;;;;;;;17.40;98.19;101792.69;6093033;19;20140;-70
2023/08/24 02:14:34;;;;;;;13.80;6.20;;;;;;;17.40;98.25;101782.91;6095828;19;20094;-71
2023/08/24 02:16:41;;;;;;;12.68;6.53;;;;;;;17.34;98.48;101777.94;6096091;19;20011;-70
2023/08/24 02:18:46;;;;;;;11.20;6.35;;;;;;;17.36;99.28;101768.09;6098300;19;20056;-69
2023/08/24 02:20:49;;;;;;;14.18;6.35;;;;;;;17.32;99.23;101764.75;6097302;19;20011;-71
2023/08/24 02:22:56;;;;;;;13.57;5.50;;;;;;;17.26;99.42;101757.09;6096363;19;20016;-71
2023/08/24 02:25:02;;;;;;;12.02;6.03;;;;;;;17.29;99.04;101770.22;6099467;19;20037;-70
2023/08/24 02:27:08;;;;;;;15.05;6.50;;;;;;;17.27;99.23;101771.25;6097561;19;20015;-70
2023/08/24 02:29:11;;;;;;;10.98;5.55;;;;;;;17.22;98.93;101765.31;6087512;19;20464;-73
2023/08/24 02:31:16;;;;;;;;;;;;;;;17.21;99.63;101771.56;6094462;19;20007;-70
2023/08/24 02:33:24;;;;;;;12.20;6.57;;;;;;;17.21;99.47;101760.94;6098868;19;20142;-70
2023/08/24 02:35:32;;;;;;;14.68;6.65;;;;;;;17.20;99.64;101770.72;6098491;19;20035;-70
2023/08/24 02:37:37;;;;;;;13.13;7.00;;;;;;;17.22;99.65;101768.84;6093668;19;19998;-70
2023/08/24 02:39:42;;;;;;;12.05;5.90;;;;;;;17.19;99.66;101768.13;6095801;19;20054;-70
2023/08/24 02:41:47;;;;;;;12.20;6.22;;;;;;;17.24;99.37;101772.25;6096515;19;20006;-70
2023/08/24 02:43:52;;;;;;;14.00;6.47;;;;;;;17.22;99.30;101778.59;6096118;19;19998;-69
2023/08/24 02:46:04;;;;;;;11.27;5.97;;;;;;;17.24;99.28;101776.72;6085522;19;20070;-70
2023/08/24 02:48:07;;;;;;;9.77;5.70;;;;;;;17.28;99.49;101778.28;6096489;19;20031;-70
2023/08/24 02:50:15;;;;;;;12.57;6.45;;;;;;;17.28;99.33;101773.81;6098398;19;20024;-71
2023/08/24 02:52:21;;;;;;;11.55;6.40;;;;;;;17.28;99.26;101768.50;6096102;19;20113;-69
2023/08/24 02:54:29;;;;;;;12.77;6.82;;;;;;;17.29;99.23;101761.41;6096006;19;20015;-69
2023/08/24 02:56:37;;;;;;;14.80;6.82;;;;;;;17.28;99.20;101763.19;6097907;19;20035;-70
2023/08/24 02:58:42;;;;;;;12.35;6.75;;;;;;;17.30;99.10;101753.34;6094475;19;20466;-70
2023/08/24 03:00:47;;;;;;;12.00;5.53;;;;;;;17.33;99.28;101747.88;6093476;19;20010;-71
2023/08/24 03:02:55;;;;;;;11.65;5.60;;;;;;;17.30;99.56;101750.69;6087376;19;20086;-70
2023/08/24 03:05:00;;;;;;;11.98;6.13;;;;;;;17.36;99.19;101738.88;6091710;19;20443;-69
2023/08/24 03:07:11;;;;;;;13.60;6.50;;;;;;;17.32;99.68;101735.53;6092602;19;20063;-70
2023/08/24 03:09:20;;;;;;;12.27;6.70;;;;;;;17.37;99.51;101735.25;6095803;19;20098;-70
2023/08/24 03:11:25;;;;;;;12.88;6.38;;;;;;;17.35;99.52;101729.16;6091551;19;20003;-70
2023/08/24 03:13:32;;;;;;;11.23;5.95;;;;;;;17.36;99.53;101735.38;6089125;19;20022;-71
2023/08/24 03:15:38;;;;;;;12.65;6.28;;;;;;;17.33;99.63;101741.69;6095016;19;20006;-69
2023/08/24 03:17:43;;;;;;;15.23;6.90;;;;;;;17.29;99.98;101734.81;6091279;19;20010;-71
2023/08/24 03:19:49;;;;;;;10.60;6.20;;;;;;;17.29;100.00;101732.16;6094339;19;20007;-70
2023/08/24 03:21:56;;;;;;;12.23;6.28;;;;;;;17.25;100.00;101725.31;6096653;19;20010;-69
2023/08/24 03:24:04;;;;;;;11.57;6.43;;;;;;;17.23;100.00;101717.44;6094630;19;20078;-70
2023/08/24 03:26:06;;;;;;;13.80;6.38;;;;;;;17.25;100.00;101722.66;6093617;19;20006;-70
2023/08/24 03:28:12;;;;;;;12.68;6.70;;;;;;;17.27;100.00;101716.34;6094417;19;20013;-69
2023/08/24 03:30:17;;;;;;;14.80;6.07;;;;;;;17.23;100.00;101717.44;6094704;19;20006;-69
2023/08/24 03:32:23;;;;;;;12.40;6.63;;;;;;;17.25;100.00;101722.66;6094198;19;20026;-70
2023/08/24 03:34:31;;;;;;;11.25;5.72;;;;;;;17.23;100.00;101717.44;6085737;19;20037;-70
2023/08/24 03:36:36;;;;;;;12.07;6.60;;;;;;;17.20;100.00;101719.41;6096219;19;20795;-70
2023/08/24 03:38:43;;;;;;;11.95;6.45;;;;;;;17.24;100.00;101713.81;6086697;19;20002;-69
2023/08/24 03:40:50;;;;;;;11.75;6.53;;;;;;;17.19;100.00;101717.66;6095513;19;20463;-70
2023/08/24 03:42:56;;;;;;;14.00;6.47;;;;;;;17.13;100.00;101723.31;6093269;19;20006;-70
2023/08/24 03:45:14;;;;;;;12.65;6.93;;;;;;;17.09;100.00;101727.97;6095242;19;20009;-71
2023/08/24 03:47:21;;;;;;;11.68;6.18;;;;;;;17.04;100.00;101727.34;6092767;19;20051;-70
2023/08/24 03:49:29;;;;;;;13.02;6.15;;;;;;;17.02;100.00;101721.25;6088057;19;20289;-70
2023/08/24 03:51:43;;;;;;;14.32;6.30;;;;;;;16.99;100.00;101716.97;6073627;19;20121;-70
2023/08/24 03:53:56;;;;;;;13.68;6.88;;;;;;;16.98;100.00;101719.69;6093929;19;20006;-71
2023/08/24 03:56:11;;;;;;;11.77;6.88;;;;;;;16.94;100.00;101726.97;6056739;19;20404;-71
2023/08/24 03:58:14;;;;;;;11.73;6.20;;;;;;;16.91;100.00;101731.59;6094188;19;20006;-71
2023/08/24 04:00:19;;;;;;;9.75;5.88;;;;;;;16.88;100.00;101727.28;6093588;19;20539;-69
2023/08/24 04:02:22;;;;;;;10.55;6.28;;;;;;;16.86;100.00;101731.81;6096565;19;20809;-69
2023/08/24 04:04:28;;;;;;;12.77;5.93;;;;;;;16.82;100.00;101730.25;6100723;19;20010;-70
2023/08/24 04:06:34;;;;;;;11.95;6.25;;;;;;;16.79;100.00;101733.94;6096028;19;20002;-73
2023/08/24 04:08:39;;;;;;;14.55;6.95;;;;;;;16.78;100.00;101732.22;6096280;19;20014;-72
2023/08/24 04:10:44;;;;;;;11.68;6.05;;;;;;;16.81;100.00;101731.22;6098036;19;20010;-73
2023/08/24 04:12:52;;;;;;;14.00;7.00;;;;;;;16.81;100.00;101734.72;6099410;19;20286;-74
2023/08/24 04:15:00;;;;;;;14.38;6.70;;;;;;;16.78;100.00;101728.72;6098876;19;20459;-74
2023/08/24 04:17:06;;;;;;;15.40;7.03;;;;;;;16.76;100.00;101735.88;6100112;19;20316;-74
2023/08/24 04:19:11;;;;;;;14.20;7.10;;;;;;;16.79;100.00;101727.75;6096895;19;20035;-74
2023/08/24 04:21:16;;;;;;;11.23;6.82;;;;;;;16.84;100.00;101731.03;6099760;19;20026;-74
2023/08/24 04:23:28;;;;;;;11.40;6.45;;;;;;;16.85;100.00;101732.75;6100721;19;20010;-73
2023/08/24 04:25:35;;;;;;;11.75;6.93;;;;;;;16.85;100.00;101728.31;6098433;19;20455;-76
2023/08/24 04:27:41;;;;;;;14.60;7.68;;;;;;;16.87;100.00;101721.09;6092673;19;20007;-75
2023/08/24 04:29:49;;;;;;;12.27;6.72;;;;;;;16.88;100.00;101711.38;6097838;19;20019;-74
2023/08/24 04:31:54;;;;;;;14.20;7.25;;;;;;;16.86;100.00;101714.09;6100447;19;20017;-74
2023/08/24 04:34:00;;;;;;;15.00;7.13;;;;;;;16.90;100.00;101720.09;6096265;19;20119;-75
2023/08/24 04:36:06;;;;;;;15.95;6.80;;;;;;;16.86;100.00;101713.25;6100030;19;20023;-73
2023/08/24 04:38:12;;;;;;;14.05;7.35;;;;;;;16.88;100.00;101696.28;6098956;19;20062;-72
2023/08/24 04:40:18;;;;;;;13.38;6.90;;;;;;;16.87;100.00;101701.66;6094443;19;20451;-74
2023/08/24 04:42:28;;;;;;;18.30;8.25;;;;;;;16.83;100.00;101703.63;6092482;19;20010;-74
2023/08/24 04:44:36;;;;;;;15.80;7.25;;;;;;;16.79;100.00;101706.53;6094801;19;20014;-73
2023/08/24 04:46:43;;;;;;;14.73;7.68;;;;;;;16.78;100.00;101705.69;6086845;19;20460;-73
2023/08/24 04:48:49;;;;;;;14.82;7.65;;;;;;;16.78;100.00;101692.41;6095149;19;20019;-73
2023/08/24 04:50:56;;;;;;;14.68;7.53;;;;;;;16.81;100.00;101694.03;6095328;19;20020;-75
2023/08/24 04:53:01;;;;;;;13.25;8.23;;;;;;;16.90;100.00;101696.19;6095194;19;20078;-75
2023/08/24 04:55:09;;;;;;;16.60;8.80;;;;;;;16.97;100.00;101692.28;6097004;19;20463;-74
2023/08/24 04:57:14;;;;;;;14.90;7.75;;;;;;;16.97;100.00;101684.31;6096732;19;20767;-76
2023/08/24 04:59:20;;;;;;;15.57;7.90;;;;;;;16.97;100.00;101684.31;6096812;19;20014;-75
2023/08/24 05:01:34;;;;;;;18.13;8.75;;;;;;;17.02;100.00;101679.63;6089413;19;20007;-74
2023/08/24 05:03:42;;;;;;;14.43;8.38;;;;;;;17.03;100.00;101683.97;6097200;19;20335;-74
2023/08/24 05:05:47;;;;;;;15.13;9.15;;;;;;;17.09;100.00;101677.50;6095620;19;20479;-74
2023/08/24 05:07:54;;;;;;;16.77;8.77;;;;;;;17.13;100.00;101673.72;6095870;19;20489;-75
2023/08/24 05:10:03;;;;;;;15.93;8.15;;;;;;;17.19;100.00;101672.50;6092260;19;20015;-75
2023/08/24 05:12:08;;;;;;;15.35;8.32;;;;;;;17.18;100.00;101658.38;6096692;19;20030;-75
2023/08/24 05:14:14;;;;;;;13.95;7.97;;;;;;;17.19;100.00;101657.44;6093810;19;20009;-75
2023/08/24 05:16:19;;;;;;;13.82;7.85;;;;;;;17.21;100.00;101647.59;6075932;19;20035;-75
2023/08/24 05:18:30;;;;;;;16.70;8.68;;;;;;;17.25;100.00;101642.97;6085153;19;20351;-73
2023/08/24 05:20:38;;;;;;;15.70;9.07;;;;;;;17.21;100.00;101644.94;6088392;19;20007;-75
2023/08/24 05:22:46;;;;;;;15.52;8.05;;;;;;;17.24;100.00;101638.59;6091707;19;20034;-73
2023/08/24 05:24:51;;;;;;;17.95;8.80;;;;;;;17.29;100.00;101647.16;6096227;19;20389;-74
2023/08/24 05:26:56;;;;;;;16.90;9.23;;;;;;;17.24;100.00;101655.38;6098029;19;20034;-74
2023/08/24 05:29:01;;;;;;;16.45;8.48;;;;;;;17.24;100.00;101660.69;6097830;19;20006;-74
2023/08/24 05:31:06;;;;;;;15.45;9.02;;;;;;;17.32;100.00;101658.50;6097613;19;20002;-74
2023/08/24 05:33:12;;;;;;;17.13;8.88;;;;;;;17.39;100.00;101653.69;6096735;19;20357;-74
2023/08/24 05:35:17;;;;;;;16.63;9.18;;;;;;;17.46;100.00;101657.72;6103448;19;20371;-76
2023/08/24 05:37:25;;;;;;;16.45;9.55;;;;;;;17.49;100.00;101656.69;6089805;19;20014;-74
2023/08/24 05:39:36;;;;;;;18.45;9.57;;;;;;;17.55;100.00;101651.84;6101065;19;20010;-74
2023/08/24 05:41:46;;;;;;;17.27;9.15;;;;;;;17.61;100.00;101641.81;6102611;19;20495;-75
2023/08/24 05:43:52;;;;;;;18.05;9.73;;;;;;;17.76;100.00;101631.16;6100032;19;20470;-74
2023/08/24 05:46:05;;;;;;;17.70;8.95;;;;;;;17.82;100.00;101635.28;6092986;19;20010;-75
2023/08/24 05:48:10;;;;;;;16.92;8.85;;;;;;;17.94;100.00;101628.41;6095772;19;20042;-74
2023/08/24 05:50:18;;;;;;;17.65;8.98;;;;;;;18.01;100.00;101628.91;6100456;19;20653;-75
2023/08/24 05:52:29;;;;;;;22.40;9.55;;;;;;;18.17;99.61;101622.59;6097307;19;20014;-75
2023/08/24 05:54:34;;;;;;;18.92;9.52;;;;;;;18.26;99.20;101618.50;6093109;19;20028;-75
2023/08/24 05:56:39;;;;;;;16.50;10.18;;;;;;;18.32;98.84;101619.94;6096076;19;20018;-75
2023/08/24 05:58:44;;;;;;;16.63;9.10;;;;;;;18.46;98.47;101619.09;6093580;19;20530;-76
2023/08/24 06:00:49;;;;;;;21.52;9.68;;;;;;;18.55;97.74;101611.41;6101999;19;20436;-73
2023/08/24 06:02:53;;;;;;;16.33;9.20;;;;;;;18.62;97.12;101603.91;6097895;19;20472;-76
2023/08/24 06:05:00;;;;;;;19.60;9.75;;;;;;;18.73;96.86;101609.41;6092828;19;20364;-74
2023/08/24 06:07:06;;;;;;;20.48;9.52;;;;;;;18.81;96.24;101604.50;6095899;19;20025;-73
2023/08/24 06:09:14;;;;;;;13.88;9.10;;;;;;;18.91;95.42;101595.94;6101217;19;20019;-74
2023/08/24 06:11:20;;;;;;;19.38;9.32;;;;;;;19.01;94.90;101589.94;6093375;19;20026;-74
2023/08/24 06:13:25;;;;;;;19.92;9.75;;;;;;;19.09;94.12;101586.78;6101434;19;20024;-76
2023/08/24 06:15:28;;;;;;;17.15;9.30;;;;;;;19.14;93.91;101590.00;6098237;19;20006;-73
2023/08/24 06:17:35;;;;;;;16.85;10.32;;;;;;;19.23;94.13;101593.88;6095818;19;20023;-74
2023/08/24 06:19:40;;;;;;;15.73;9.05;;;;;;;19.39;93.19;101591.06;6090968;19;20015;-73
2023/08/24 06:21:46;;;;;;;16.70;10.13;;;;;;;19.47;92.53;101581.59;6102608;19;20007;-74
2023/08/24 06:24:00;;;;;;;17.65;9.18;;;;;;;19.59;92.04;101585.25;6090571;19;20002;-74
2023/08/24 06:26:16;;;;;;;17.30;9.70;;;;;;;19.68;91.93;101582.00;6056279;19;20040;-74
2023/08/24 06:28:22;;;;;;;14.48;9.65;;;;;;;19.72;90.82;101572.84;6097801;19;20014;-73
2023/08/24 06:30:36;;;;;;;17.63;10.43;;;;;;;19.70;90.70;101560.56;6090523;19;20081;-74
2023/08/24 06:32:49;;;;;;;19.27;10.63;;;;;;;19.84;90.49;101564.97;6097728;19;20017;-73
2023/08/24 06:34:58;;;;;;;18.38;10.18;;;;;;;19.96;90.45;101564.13;6080056;19;20467;-75
2023/08/24 06:37:04;;;;;;;18.92;10.07;;;;;;;20.06;89.47;101569.69;6096223;19;20467;-72
2023/08/24 06:39:09;;;;;;;16.98;9.75;;;;;;;20.17;88.57;101569.81;6097209;19;20007;-73
2023/08/24 06:41:29;;;;;;;21.48;10.02;;;;;;;20.33;88.45;101577.59;6100105;19;20025;-73
2023/08/24 06:43:38;;;;;;;20.65;10.68;;;;;;;20.46;88.01;101583.78;6079908;19;20459;-73
2023/08/24 06:45:50;;;;;;;21.33;11.05;;;;;;;20.52;87.29;101585.16;6089756;19;20454;-72
2023/08/24 06:47:55;;;;;;;19.15;11.57;;;;;;;20.52;87.15;101586.00;6067589;19;20002;-74
2023/08/24 06:50:03;;;;;;;23.48;11.73;;;;;;;20.56;86.76;101582.22;6097498;19;20238;-73
2023/08/24 06:52:08;;;;;;;19.95;10.57;;;;;;;20.71;86.50;101579.41;6098188;19;20006;-74
2023/08/24 06:54:22;;;;;;;19.50;10.80;;;;;;;20.99;85.69;101568.44;6096598;19;20016;-73
2023/08/24 06:56:43;;;;;;;23.85;11.27;;;;;;;21.16;84.99;101569.00;6094189;19;20139;-72
2023/08/24 06:59:00;;;;;;;21.40;12.00;;;;;;;21.24;83.96;101561.28;6068123;19;20006;-71
2023/08/24 07:01:07;;;;;;;19.92;11.40;;;;;;;21.21;83.97;101561.50;6087291;19;20519;-71
2023/08/24 07:03:12;;;;;;;21.90;12.38;;;;;;;21.35;82.57;101564.00;6090891;19;20003;-71
2023/08/24 07:05:21;;;;;;;20.52;11.30;;;;;;;21.51;82.45;101561.06;6089312;19;20003;-73
2023/08/24 07:07:31;;;;;;;20.90;12.73;;;;;;;21.47;82.67;101565.78;6095935;19;20006;-71
2023/08/24 07:09:36;;;;;;;20.13;11.85;;;;;;;21.60;81.61;101563.06;6095769;19;20460;-71
2023/08/24 07:11:47;;;;;;;18.52;11.18;;;;;;;21.72;81.29;101571.09;6097601;19;20014;-73
2023/08/24 07:13:57;;;;;;;19.98;11.65;;;;;;;22.13;80.21;101574.13;6094200;19;20441;-73
2023/08/24 07:16:03;;;;;;;19.33;11.25;;;;;;;22.21;79.13;101578.06;6078452;19;20597;-75
2023/08/24 07:18:08;;;;;;;18.95;11.05;;;;;;;22.12;78.99;101568.91;6085861;19;20404;-74
2023/08/24 07:20:16;;;;;;;20.40;11.65;;;;;;;22.24;78.88;101570.66;6092466;19;20014;-71
2023/08/24 07:22:26;;;;;;;17.42;11.48;;;;;;;22.24;78.65;101562.63;6074083;19;20034;-71
2023/08/24 07:24:33;;;;;;;20.98;11.43;;;;;;;22.53;77.84;101556.78;6092579;19;20559;-71
2023/08/24 07:26:57;;;;;;;18.05;11.45;;;;;;;22.72;76.98;101546.31;6092751;19;20538;-73
2023/08/24 07:29:02;;;;;;;21.58;11.55;;;;;;;22.92;75.65;101546.50;6092804;19;20028;-72
2023/08/24 07:31:11;;;;;;;18.80;11.00;;;;;;;23.18;75.10;101550.63;6091871;19;20406;-72
2023/08/24 07:33:16;;;;;;;18.63;11.35;;;;;;;22.91;75.96;101555.53;6092865;19;20033;-70
2023/08/24 07:35:24;;;;;;;18.60;11.00;;;;;;;22.71;75.43;101563.34;6092260;19;20048;-71
2023/08/24 07:37:32;;;;;;;20.33;11.20;;;;;;;22.48;76.57;101553.63;6092600;19;22741;-76
2023/08/24 07:39:37;;;;;;;20.80;11.73;;;;;;;22.37;76.43;101549.13;6093612;19;20013;-76
2023/08/24 07:41:42;;;;;;;20.45;11.32;;;;;;;22.31;76.43;101546.94;6088806;19;20038;-70
2023/08/24 07:43:50;;;;;;;19.90;11.90;;;;;;;22.29;75.97;101544.38;6092344;19;20082;-71
2023/08/24 07:45:55;;;;;;;21.13;10.55;;;;;;;22.40;75.94;101545.34;6094541;19;20388;-71
2023/08/24 07:48:00;;;;;;;19.65;12.13;;;;;;;22.39;75.60;101541.81;6087154;19;20083;-71
2023/08/24 07:50:07;;;;;;;19.80;10.77;;;;;;;22.55;76.22;101539.63;6091532;19;20002;-71
2023/08/24 07:52:12;;;;;;;18.75;11.68;;;;;;;22.60;75.87;101539.25;6093748;19;20027;-74
2023/08/24 07:54:17;;;;;;;18.65;11.52;;;;;;;22.55;75.76;101546.81;6085024;19;20042;-70
2023/08/24 07:56:22;;;;;;;21.75;12.05;;;;;;;22.74;75.60;101541.66;6093418;19;20034;-71
2023/08/24 07:58:31;;;;;;;20.70;11.38;;;;;;;22.52;75.96;101530.97;6092853;19;20601;-75
2023/08/24 08:00:39;;;;;;;18.80;11.40;;;;;;;22.33;76.55;101528.94;6089463;19;20020;-75
2023/08/24 08:02:44;;;;;;;19.70;11.75;;;;;;;22.48;76.05;101530.34;6093028;19;20018;-74
2023/08/24 08:04:49;;;;;;;19.85;11.82;;;;;;;22.60;75.75;101531.22;6092651;19;20015;-73
2023/08/24 08:06:55;;;;;;;17.48;12.57;;;;;;;22.65;76.19;101531.69;6091553;19;20011;-74
2023/08/24 08:09:01;;;;;;;18.35;11.10;;;;;;;22.79;75.75;101530.56;6086342;19;20010;-74
2023/08/24 08:11:06;;;;;;;19.05;10.85;;;;;;;22.95;75.51;101533.69;6084491;19;20003;-75
2023/08/24 08:13:11;;;;;;;15.88;11.30;;;;;;;22.89;74.96;101525.31;6090466;19;20003;-75
2023/08/24 08:15:14;;;;;;;19.63;11.15;;;;;;;22.69;76.44;101530.47;6088271;19;20058;-75
2023/08/24 08:17:23;;;;;;;;;;;;;;;22.55;76.51;101520.88;6090029;19;20017;-74
2023/08/24 08:19:31;;;;;;;19.90;11.00;;;;;;;22.82;75.74;101516.91;6086605;19;20692;-75
2023/08/24 08:21:36;;;;;;;18.15;11.18;;;;;;;23.02;75.27;101515.34;6089285;19;20249;-74
2023/08/24 08:23:41;;;;;;;19.15;10.90;;;;;;;22.92;75.96;101509.84;6095593;19;20030;-74
2023/08/24 08:25:47;;;;;;;24.25;12.13;;;;;;;22.75;77.09;101491.63;6095051;19;20034;-72
2023/08/24 08:27:52;;;;;;;16.63;10.93;;;;;;;22.93;76.63;101484.75;6090462;19;20068;-75
2023/08/24 08:29:57;;;;;;;20.95;11.45;;;;;;;22.99;76.15;101486.09;6086700;19;20086;-74
2023/08/24 08:32:05;;;;;;;19.13;11.52;;;;;;;23.07;75.87;101480.97;6090976;19;20363;-71
2023/08/24 08:34:13;;;;;;;19.10;12.07;;;;;;;23.10;76.27;101475.34;6089614;19;20014;-70
2023/08/24 08:36:18;;;;;;;22.13;12.13;;;;;;;23.15;75.37;101478.47;6091641;19;21334;-70
2023/08/24 08:38:25;;;;;;;22.38;13.13;;;;;;;23.17;75.48;101465.81;6094601;19;20530;-74
2023/08/24 08:40:34;;;;;;;20.25;11.57;;;;;;;23.29;75.44;101463.06;6090981;19;20013;-72
2023/08/24 08:42:40;;;;;;;20.88;12.55;;;;;;;23.15;75.87;101454.34;6093224;19;20077;-72
2023/08/24 08:44:49;;;;;;;17.63;11.70;;;;;;;23.04;76.13;101459.78;6092819;19;20010;-70
2023/08/24 08:47:00;;;;;;;22.77;12.05;;;;;;;23.02;76.52;101455.50;6095141;19;20009;-70
2023/08/24 08:49:06;;;;;;;21.90;11.90;;;;;;;23.17;75.92;101455.09;6096913;19;20007;-71
2023/08/24 08:51:16;;;;;;;20.05;12.77;;;;;;;23.38;75.78;101457.78;6096178;19;20016;-71
2023/08/24 08:53:25;;;;;;;20.10;12.65;;;;;;;23.66;74.80;101461.59;6070178;19;20006;-74
2023/08/24 08:55:31;;;;;;;19.33;11.23;;;;;;;23.69;74.69;101459.66;6093339;19;20007;-76
2023/08/24 08:57:37;;;;;;;20.17;12.60;;;;;;;23.64;74.57;101450.19;6093526;19;20006;-75
2023/08/24 08:59:43;;;;;;;19.52;13.73;;;;;;;23.85;73.96;101450.16;6087657;19;20006;-75
2023/08/24 09:01:50;;;;;;;20.63;12.68;;;;;;;23.93;73.41;101451.34;6092505;19;20003;-74
2023/08/24 09:03:56;;;;;;;19.65;11.55;;;;;;;24.07;73.73;101442.94;6091150;19;20433;-75
2023/08/24 09:06:02;;;;;;;19.05;12.55;;;;;;;24.15;72.79;101439.56;6090633;19;20027;-70
2023/08/24 09:08:10;;;;;;;20.67;12.40;;;;;;;24.18;72.83;101436.59;6095889;19;20560;-71
2023/08/24 09:10:15;;;;;;;20.23;12.15;;;;;;;24.04;72.93;101438.69;6094909;19;20007;-71
2023/08/24 09:12:20;;;;;;;19.52;11.75;;;;;;;24.11;72.70;101438.97;6098108;19;20027;-75
2023/08/24 09:14:25;;;;;;;20.23;12.20;;;;;;;24.12;72.46;101442.50;6094179;19;20015;-75
2023/08/24 09:16:35;;;;;;;24.00;13.13;;;;;;;24.16;72.50;101446.63;6087159;19;20010;-75
2023/08/24 09:19:24;;;;;;;21.83;11.18;;;;;;;24.25;72.45;101451.16;6050552;19;20051;-74
2023/08/24 09:25:49;;;;;;;19.38;11.52;;;;;;;24.26;72.45;101474.38;6019015;19;20611;-75
2023/08/24 09:32:18;;;;;;;18.10;11.48;;;;;;;24.19;72.94;101473.22;6070494;19;20534;-75
2023/08/24 09:35:25;;;;;;;17.30;11.38;;;;;;;24.18;73.05;101471.53;6032570;19;20014;-74
2023/08/24 09:37:35;;;;;;;17.75;12.00;;;;;;;23.95;73.14;101466.31;6089637;19;20002;-71
2023/08/24 09:39:37;;;;;;;15.88;10.23;;;;;;;23.86;73.74;101461.78;6091833;19;20063;-71
2023/08/24 09:41:42;;;;;;;;;;;;;;;23.93;73.84;101462.06;6089646;19;20010;-69
2023/08/24 09:43:50;;;;;;;18.35;11.50;;;;;;;23.74;74.51;101465.50;6089006;19;20778;-71
2023/08/24 09:45:59;;;;;;;18.98;11.20;;;;;;;23.72;74.70;101459.41;6089095;19;20074;-71
2023/08/24 09:48:05;;;;;;;19.50;12.38;;;;;;;23.59;74.55;101471.19;6088162;19;20003;-71
2023/08/24 09:50:10;;;;;;;21.35;12.10;;;;;;;23.63;74.58;101479.81;6090152;19;20017;-70
2023/08/24 09:52:16;;;;;;;19.13;12.23;;;;;;;23.51;75.20;101483.53;6086470;19;20007;-71